sensor_id;sensor_type;location;lat;lon;timestamp;P1;durP1;ratioP1;P2;durP2;ratioP2
57989;SDS011;58373;51.824;5.564;2022-09-09T00:01:08;6.32;;;3.47;;
57989;SDS011;58373;51.824;5.564;2022-09-09T00:06:24;5.72;;;3.28;;
57989;SDS011;58373;51.824;5.564;2022-09-09T00:09:06;6.60;;;3.78;;
57989;SDS011;58373;51.824;5.564;2022-09-09T00:11:41;5.03;;;3.45;;
57989;SDS011;58373;51.824;5.564;2022-09-09T00:14:14;5.00;;;3.17;;
57989;SDS011;58373;51.824;5.564;2022-09-09T00:17:02;5.90;;;3.50;;
57989;SDS011;58373;51.824;5.564;2022-09-09T00:19:38;5.47;;;3.20;;
57989;SDS011;58373;51.824;5.564;2022-09-09T00:22:15;6.20;;;3.33;;
57989;SDS011;58373;51.824;5.564;2022-09-09T00:24:46;6.20;;;3.55;;
57989;SDS011;58373;51.824;5.564;2022-09-09T00:27:36;4.50;;;3.10;;
57989;SDS011;58373;51.824;5.564;2022-09-09T00:33:00;4.97;;;3.17;;
57989;SDS011;58373;51.824;5.564;2022-09-09T00:35:37;5.57;;;3.10;;
57989;SDS011;58373;51.824;5.564;2022-09-09T00:38:13;5.43;;;3.00;;
57989;SDS011;58373;51.824;5.564;2022-09-09T00:40:45;5.30;;;3.20;;
57989;SDS011;58373;51.824;5.564;2022-09-09T00:43:32;6.15;;;3.17;;
57989;SDS011;58373;51.824;5.564;2022-09-09T01:05:09;3.55;;;2.65;;
57989;SDS011;58373;51.824;5.564;2022-09-09T01:07:40;5.25;;;2.70;;
57989;SDS011;58373;51.824;5.564;2022-09-09T01:10:21;5.13;;;2.97;;
57989;SDS011;58373;51.824;5.564;2022-09-09T01:12:54;6.50;;;2.67;;
57989;SDS011;58373;51.824;5.564;2022-09-09T01:15:24;4.35;;;2.53;;
57989;SDS011;58373;51.824;5.564;2022-09-09T01:18:01;5.30;;;2.72;;
57989;SDS011;58373;51.824;5.564;2022-09-09T01:23:30;4.43;;;2.60;;
57989;SDS011;58373;51.824;5.564;2022-09-09T01:28:53;5.15;;;2.72;;
57989;SDS011;58373;51.824;5.564;2022-09-09T01:31:21;4.88;;;2.70;;
57989;SDS011;58373;51.824;5.564;2022-09-09T01:33:51;4.93;;;2.78;;
57989;SDS011;58373;51.824;5.564;2022-09-09T01:36:19;4.22;;;2.80;;
57989;SDS011;58373;51.824;5.564;2022-09-09T01:38:51;4.53;;;2.75;;
57989;SDS011;58373;51.824;5.564;2022-09-09T01:41:17;5.25;;;2.80;;
57989;SDS011;58373;51.824;5.564;2022-09-09T01:43:43;5.43;;;2.83;;
57989;SDS011;58373;51.824;5.564;2022-09-09T01:46:08;5.40;;;2.88;;
57989;SDS011;58373;51.824;5.564;2022-09-09T01:48:36;3.53;;;2.70;;
57989;SDS011;58373;51.824;5.564;2022-09-09T01:51:01;4.25;;;3.10;;
57989;SDS011;58373;51.824;5.564;2022-09-09T01:53:28;5.75;;;3.00;;
57989;SDS011;58373;51.824;5.564;2022-09-09T01:58:38;5.95;;;2.90;;
57989;SDS011;58373;51.824;5.564;2022-09-09T02:10:17;5.25;;;2.80;;
57989;SDS011;58373;51.824;5.564;2022-09-09T02:18:24;3.85;;;2.80;;
57989;SDS011;58373;51.824;5.564;2022-09-09T02:20:54;4.22;;;2.70;;
57989;SDS011;58373;51.824;5.564;2022-09-09T02:23:22;5.95;;;3.00;;
57989;SDS011;58373;51.824;5.564;2022-09-09T02:25:49;3.85;;;2.50;;
57989;SDS011;58373;51.824;5.564;2022-09-09T02:28:18;5.00;;;2.60;;
57989;SDS011;58373;51.824;5.564;2022-09-09T02:30:49;5.85;;;2.75;;
57989;SDS011;58373;51.824;5.564;2022-09-09T02:33:20;7.43;;;2.97;;
57989;SDS011;58373;51.824;5.564;2022-09-09T02:35:49;4.65;;;2.92;;
57989;SDS011;58373;51.824;5.564;2022-09-09T02:38:16;6.18;;;2.97;;
57989;SDS011;58373;51.824;5.564;2022-09-09T02:40:43;4.88;;;2.88;;
57989;SDS011;58373;51.824;5.564;2022-09-09T02:43:08;6.43;;;3.00;;
57989;SDS011;58373;51.824;5.564;2022-09-09T02:45:42;6.20;;;3.22;;
57989;SDS011;58373;51.824;5.564;2022-09-09T02:48:30;4.63;;;2.80;;
57989;SDS011;58373;51.824;5.564;2022-09-09T02:51:11;5.65;;;3.00;;
57989;SDS011;58373;51.824;5.564;2022-09-09T02:54:03;4.85;;;2.90;;
57989;SDS011;58373;51.824;5.564;2022-09-09T02:56:51;4.50;;;2.90;;
57989;SDS011;58373;51.824;5.564;2022-09-09T02:59:21;5.07;;;2.80;;
57989;SDS011;58373;51.824;5.564;2022-09-09T03:01:47;4.88;;;3.00;;
57989;SDS011;58373;51.824;5.564;2022-09-09T03:04:13;5.78;;;3.20;;
57989;SDS011;58373;51.824;5.564;2022-09-09T03:06:38;5.55;;;3.05;;
57989;SDS011;58373;51.824;5.564;2022-09-09T03:09:04;5.20;;;3.33;;
57989;SDS011;58373;51.824;5.564;2022-09-09T03:11:29;5.22;;;2.90;;
57989;SDS011;58373;51.824;5.564;2022-09-09T03:13:55;7.85;;;3.13;;
57989;SDS011;58373;51.824;5.564;2022-09-09T03:16:23;5.20;;;2.90;;
57989;SDS011;58373;51.824;5.564;2022-09-09T03:18:49;7.10;;;3.17;;
57989;SDS011;58373;51.824;5.564;2022-09-09T03:21:14;5.55;;;3.30;;
57989;SDS011;58373;51.824;5.564;2022-09-09T03:23:40;7.13;;;3.15;;
57989;SDS011;58373;51.824;5.564;2022-09-09T03:26:05;5.97;;;3.08;;
57989;SDS011;58373;51.824;5.564;2022-09-09T03:28:31;6.80;;;3.15;;
57989;SDS011;58373;51.824;5.564;2022-09-09T03:31:00;5.65;;;3.17;;
57989;SDS011;58373;51.824;5.564;2022-09-09T03:33:26;6.40;;;3.10;;
57989;SDS011;58373;51.824;5.564;2022-09-09T03:35:52;7.18;;;3.50;;
57989;SDS011;58373;51.824;5.564;2022-09-09T03:38:18;9.40;;;3.50;;
57989;SDS011;58373;51.824;5.564;2022-09-09T03:40:53;6.53;;;3.25;;
57989;SDS011;58373;51.824;5.564;2022-09-09T03:43:26;7.18;;;3.45;;
57989;SDS011;58373;51.824;5.564;2022-09-09T03:45:53;6.03;;;3.50;;
57989;SDS011;58373;51.824;5.564;2022-09-09T03:48:22;6.93;;;3.28;;
57989;SDS011;58373;51.824;5.564;2022-09-09T03:50:49;6.90;;;3.38;;
57989;SDS011;58373;51.824;5.564;2022-09-09T03:53:16;6.05;;;3.53;;
57989;SDS011;58373;51.824;5.564;2022-09-09T03:55:47;6.25;;;3.58;;
57989;SDS011;58373;51.824;5.564;2022-09-09T03:58:15;6.63;;;3.67;;
57989;SDS011;58373;51.824;5.564;2022-09-09T04:00:43;10.23;;;3.88;;
57989;SDS011;58373;51.824;5.564;2022-09-09T04:03:09;6.78;;;3.50;;
57989;SDS011;58373;51.824;5.564;2022-09-09T04:05:35;7.25;;;3.47;;
57989;SDS011;58373;51.824;5.564;2022-09-09T04:08:04;6.05;;;3.55;;
57989;SDS011;58373;51.824;5.564;2022-09-09T04:10:31;9.52;;;3.60;;
57989;SDS011;58373;51.824;5.564;2022-09-09T04:12:56;5.38;;;3.30;;
57989;SDS011;58373;51.824;5.564;2022-09-09T04:15:21;8.23;;;4.00;;
57989;SDS011;58373;51.824;5.564;2022-09-09T04:17:47;8.45;;;3.65;;
57989;SDS011;58373;51.824;5.564;2022-09-09T04:20:12;7.63;;;3.80;;
57989;SDS011;58373;51.824;5.564;2022-09-09T04:22:38;8.60;;;3.60;;
57989;SDS011;58373;51.824;5.564;2022-09-09T04:25:06;6.97;;;3.60;;
57989;SDS011;58373;51.824;5.564;2022-09-09T04:27:32;8.52;;;3.60;;
57989;SDS011;58373;51.824;5.564;2022-09-09T04:29:57;7.82;;;3.58;;
57989;SDS011;58373;51.824;5.564;2022-09-09T04:32:23;9.45;;;4.15;;
57989;SDS011;58373;51.824;5.564;2022-09-09T04:34:51;9.53;;;3.43;;
57989;SDS011;58373;51.824;5.564;2022-09-09T04:37:17;8.20;;;3.63;;
57989;SDS011;58373;51.824;5.564;2022-09-09T04:39:42;6.55;;;3.22;;
57989;SDS011;58373;51.824;5.564;2022-09-09T04:42:07;8.82;;;3.40;;
57989;SDS011;58373;51.824;5.564;2022-09-09T04:44:33;6.70;;;3.60;;
57989;SDS011;58373;51.824;5.564;2022-09-09T04:46:58;7.88;;;3.22;;
57989;SDS011;58373;51.824;5.564;2022-09-09T04:49:23;7.38;;;3.35;;
57989;SDS011;58373;51.824;5.564;2022-09-09T04:51:49;8.23;;;3.47;;
57989;SDS011;58373;51.824;5.564;2022-09-09T04:54:14;7.80;;;3.22;;
57989;SDS011;58373;51.824;5.564;2022-09-09T04:56:40;7.32;;;3.20;;
57989;SDS011;58373;51.824;5.564;2022-09-09T04:59:07;8.95;;;3.55;;
57989;SDS011;58373;51.824;5.564;2022-09-09T05:01:32;6.68;;;3.20;;
57989;SDS011;58373;51.824;5.564;2022-09-09T05:03:58;7.28;;;3.55;;
57989;SDS011;58373;51.824;5.564;2022-09-09T05:06:23;8.25;;;3.20;;
57989;SDS011;58373;51.824;5.564;2022-09-09T05:08:49;8.05;;;3.60;;
57989;SDS011;58373;51.824;5.564;2022-09-09T05:11:27;7.68;;;3.10;;
57989;SDS011;58373;51.824;5.564;2022-09-09T05:13:55;8.05;;;3.60;;
57989;SDS011;58373;51.824;5.564;2022-09-09T05:16:21;9.85;;;3.50;;
57989;SDS011;58373;51.824;5.564;2022-09-09T05:18:48;7.55;;;3.50;;
57989;SDS011;58373;51.824;5.564;2022-09-09T05:21:16;8.77;;;3.50;;
57989;SDS011;58373;51.824;5.564;2022-09-09T05:24:00;9.05;;;3.33;;
57989;SDS011;58373;51.824;5.564;2022-09-09T05:26:26;8.93;;;3.60;;
57989;SDS011;58373;51.824;5.564;2022-09-09T05:28:51;7.60;;;3.13;;
57989;SDS011;58373;51.824;5.564;2022-09-09T05:31:17;8.38;;;3.42;;
57989;SDS011;58373;51.824;5.564;2022-09-09T05:33:44;10.25;;;3.53;;
57989;SDS011;58373;51.824;5.564;2022-09-09T05:36:12;8.40;;;3.55;;
57989;SDS011;58373;51.824;5.564;2022-09-09T05:38:39;9.60;;;3.55;;
57989;SDS011;58373;51.824;5.564;2022-09-09T05:41:06;11.75;;;3.92;;
57989;SDS011;58373;51.824;5.564;2022-09-09T05:43:32;8.75;;;3.50;;
57989;SDS011;58373;51.824;5.564;2022-09-09T05:46:04;8.80;;;3.60;;
57989;SDS011;58373;51.824;5.564;2022-09-09T05:48:35;7.85;;;3.42;;
57989;SDS011;58373;51.824;5.564;2022-09-09T05:51:02;9.35;;;3.70;;
57989;SDS011;58373;51.824;5.564;2022-09-09T05:53:28;7.75;;;3.30;;
57989;SDS011;58373;51.824;5.564;2022-09-09T05:56:09;10.82;;;3.58;;
57989;SDS011;58373;51.824;5.564;2022-09-09T05:58:42;8.68;;;3.55;;
57989;SDS011;58373;51.824;5.564;2022-09-09T06:01:09;10.05;;;3.47;;
57989;SDS011;58373;51.824;5.564;2022-09-09T06:03:37;10.25;;;3.55;;
57989;SDS011;58373;51.824;5.564;2022-09-09T06:06:05;8.65;;;3.47;;
57989;SDS011;58373;51.824;5.564;2022-09-09T06:08:35;9.93;;;3.80;;
57989;SDS011;58373;51.824;5.564;2022-09-09T06:11:05;11.13;;;3.47;;
57989;SDS011;58373;51.824;5.564;2022-09-09T06:13:41;9.48;;;3.58;;
57989;SDS011;58373;51.824;5.564;2022-09-09T06:16:08;10.05;;;3.92;;
57989;SDS011;58373;51.824;5.564;2022-09-09T06:18:36;9.43;;;3.45;;
57989;SDS011;58373;51.824;5.564;2022-09-09T06:21:03;8.90;;;3.53;;
57989;SDS011;58373;51.824;5.564;2022-09-09T06:23:29;10.32;;;3.90;;
57989;SDS011;58373;51.824;5.564;2022-09-09T06:26:05;9.52;;;3.65;;
57989;SDS011;58373;51.824;5.564;2022-09-09T06:28:35;9.90;;;3.80;;
57989;SDS011;58373;51.824;5.564;2022-09-09T06:31:02;9.43;;;3.63;;
57989;SDS011;58373;51.824;5.564;2022-09-09T06:33:30;8.80;;;4.22;;
57989;SDS011;58373;51.824;5.564;2022-09-09T06:35:59;10.07;;;4.00;;
57989;SDS011;58373;51.824;5.564;2022-09-09T06:38:24;9.27;;;3.80;;
57989;SDS011;58373;51.824;5.564;2022-09-09T06:40:51;8.45;;;4.22;;
57989;SDS011;58373;51.824;5.564;2022-09-09T06:43:19;11.55;;;4.20;;
57989;SDS011;58373;51.824;5.564;2022-09-09T06:45:52;10.10;;;4.35;;
57989;SDS011;58373;51.824;5.564;2022-09-09T06:48:24;10.10;;;3.90;;
57989;SDS011;58373;51.824;5.564;2022-09-09T06:51:04;11.73;;;4.10;;
57989;SDS011;58373;51.824;5.564;2022-09-09T06:53:31;9.48;;;3.70;;
57989;SDS011;58373;51.824;5.564;2022-09-09T06:55:59;8.40;;;4.10;;
57989;SDS011;58373;51.824;5.564;2022-09-09T06:58:27;11.45;;;4.63;;
57989;SDS011;58373;51.824;5.564;2022-09-09T07:01:00;10.27;;;4.10;;
57989;SDS011;58373;51.824;5.564;2022-09-09T07:03:30;10.40;;;4.30;;
57989;SDS011;58373;51.824;5.564;2022-09-09T07:05:56;9.80;;;4.07;;
57989;SDS011;58373;51.824;5.564;2022-09-09T07:08:22;10.30;;;3.97;;
57989;SDS011;58373;51.824;5.564;2022-09-09T07:10:48;9.00;;;4.22;;
57989;SDS011;58373;51.824;5.564;2022-09-09T07:13:14;9.88;;;4.00;;
57989;SDS011;58373;51.824;5.564;2022-09-09T07:15:40;11.27;;;4.32;;
57989;SDS011;58373;51.824;5.564;2022-09-09T07:18:06;10.75;;;4.40;;
57989;SDS011;58373;51.824;5.564;2022-09-09T07:20:32;11.15;;;4.07;;
57989;SDS011;58373;51.824;5.564;2022-09-09T07:22:57;12.00;;;4.22;;
57989;SDS011;58373;51.824;5.564;2022-09-09T07:25:24;9.93;;;3.78;;
57989;SDS011;58373;51.824;5.564;2022-09-09T07:27:51;12.32;;;4.00;;
57989;SDS011;58373;51.824;5.564;2022-09-09T07:30:17;10.65;;;4.13;;
57989;SDS011;58373;51.824;5.564;2022-09-09T07:32:44;10.55;;;4.43;;
57989;SDS011;58373;51.824;5.564;2022-09-09T07:35:09;11.85;;;4.10;;
57989;SDS011;58373;51.824;5.564;2022-09-09T07:37:36;9.10;;;3.92;;
57989;SDS011;58373;51.824;5.564;2022-09-09T07:40:02;10.85;;;3.58;;
57989;SDS011;58373;51.824;5.564;2022-09-09T07:42:28;11.98;;;4.03;;
57989;SDS011;58373;51.824;5.564;2022-09-09T07:44:54;10.77;;;3.80;;
57989;SDS011;58373;51.824;5.564;2022-09-09T07:47:20;11.90;;;3.33;;
57989;SDS011;58373;51.824;5.564;2022-09-09T07:49:45;11.52;;;3.65;;
57989;SDS011;58373;51.824;5.564;2022-09-09T07:52:11;12.70;;;3.88;;
57989;SDS011;58373;51.824;5.564;2022-09-09T07:54:37;12.07;;;3.72;;
57989;SDS011;58373;51.824;5.564;2022-09-09T07:57:03;11.50;;;4.03;;
57989;SDS011;58373;51.824;5.564;2022-09-09T07:59:29;11.30;;;2.97;;
57989;SDS011;58373;51.824;5.564;2022-09-09T08:01:55;11.77;;;3.53;;
57989;SDS011;58373;51.824;5.564;2022-09-09T08:04:21;9.85;;;3.20;;
57989;SDS011;58373;51.824;5.564;2022-09-09T08:06:49;9.63;;;3.03;;
57989;SDS011;58373;51.824;5.564;2022-09-09T08:09:17;12.52;;;3.25;;
57989;SDS011;58373;51.824;5.564;2022-09-09T08:11:44;10.00;;;3.42;;
57989;SDS011;58373;51.824;5.564;2022-09-09T08:14:10;10.50;;;3.22;;
57989;SDS011;58373;51.824;5.564;2022-09-09T08:16:37;9.68;;;3.10;;
57989;SDS011;58373;51.824;5.564;2022-09-09T08:19:05;9.77;;;3.47;;
57989;SDS011;58373;51.824;5.564;2022-09-09T08:21:32;10.63;;;2.90;;
57989;SDS011;58373;51.824;5.564;2022-09-09T08:23:59;9.90;;;2.95;;
57989;SDS011;58373;51.824;5.564;2022-09-09T08:26:27;9.25;;;2.65;;
57989;SDS011;58373;51.824;5.564;2022-09-09T08:28:58;10.98;;;3.13;;
57989;SDS011;58373;51.824;5.564;2022-09-09T08:31:26;9.55;;;2.88;;
57989;SDS011;58373;51.824;5.564;2022-09-09T08:33:53;7.72;;;2.50;;
57989;SDS011;58373;51.824;5.564;2022-09-09T08:36:20;10.20;;;3.10;;
57989;SDS011;58373;51.824;5.564;2022-09-09T08:38:51;8.98;;;2.88;;
57989;SDS011;58373;51.824;5.564;2022-09-09T08:50:02;9.55;;;2.70;;
57989;SDS011;58373;51.824;5.564;2022-09-09T08:55:11;9.07;;;2.83;;
57989;SDS011;58373;51.824;5.564;2022-09-09T08:57:46;8.98;;;2.63;;
57989;SDS011;58373;51.824;5.564;2022-09-09T09:00:14;10.73;;;2.65;;
57989;SDS011;58373;51.824;5.564;2022-09-09T09:08:31;7.05;;;2.42;;
57989;SDS011;58373;51.824;5.564;2022-09-09T09:11:08;9.32;;;2.80;;
57989;SDS011;58373;51.824;5.564;2022-09-09T09:13:51;9.93;;;2.80;;
57989;SDS011;58373;51.824;5.564;2022-09-09T09:16:33;8.52;;;2.80;;
57989;SDS011;58373;51.824;5.564;2022-09-09T09:19:04;8.18;;;2.33;;
57989;SDS011;58373;51.824;5.564;2022-09-09T09:24:20;8.85;;;2.40;;
57989;SDS011;58373;51.824;5.564;2022-09-09T09:26:52;8.63;;;2.60;;
57989;SDS011;58373;51.824;5.564;2022-09-09T09:29:18;10.75;;;2.83;;
57989;SDS011;58373;51.824;5.564;2022-09-09T09:31:45;9.07;;;2.70;;
57989;SDS011;58373;51.824;5.564;2022-09-09T09:34:20;10.50;;;2.92;;
57989;SDS011;58373;51.824;5.564;2022-09-09T09:36:52;9.18;;;2.83;;
57989;SDS011;58373;51.824;5.564;2022-09-09T09:39:23;8.60;;;2.88;;
57989;SDS011;58373;51.824;5.564;2022-09-09T09:41:49;10.25;;;3.20;;
57989;SDS011;58373;51.824;5.564;2022-09-09T09:47:04;9.95;;;2.97;;
57989;SDS011;58373;51.824;5.564;2022-09-09T09:49:35;9.13;;;2.80;;
57989;SDS011;58373;51.824;5.564;2022-09-09T09:52:02;11.60;;;2.83;;
57989;SDS011;58373;51.824;5.564;2022-09-09T09:54:30;8.27;;;2.38;;
57989;SDS011;58373;51.824;5.564;2022-09-09T09:57:08;9.48;;;2.63;;
57989;SDS011;58373;51.824;5.564;2022-09-09T09:59:36;7.35;;;2.22;;
57989;SDS011;58373;51.824;5.564;2022-09-09T10:04:39;8.85;;;2.72;;
57989;SDS011;58373;51.824;5.564;2022-09-09T10:07:12;11.43;;;2.70;;
57989;SDS011;58373;51.824;5.564;2022-09-09T10:09:54;8.10;;;2.50;;
57989;SDS011;58373;51.824;5.564;2022-09-09T10:27:15;9.25;;;2.67;;
57989;SDS011;58373;51.824;5.564;2022-09-09T10:33:03;7.65;;;2.60;;
57989;SDS011;58373;51.824;5.564;2022-09-09T10:35:54;9.23;;;3.10;;
57989;SDS011;58373;51.824;5.564;2022-09-09T10:38:29;9.93;;;3.10;;
57989;SDS011;58373;51.824;5.564;2022-09-09T10:41:09;8.43;;;2.88;;
57989;SDS011;58373;51.824;5.564;2022-09-09T10:54:51;11.40;;;3.30;;
57989;SDS011;58373;51.824;5.564;2022-09-09T10:57:28;9.13;;;2.85;;
57989;SDS011;58373;51.824;5.564;2022-09-09T11:00:02;9.07;;;3.15;;
57989;SDS011;58373;51.824;5.564;2022-09-09T11:02:32;10.40;;;3.42;;
57989;SDS011;58373;51.824;5.564;2022-09-09T11:05:08;9.25;;;3.58;;
57989;SDS011;58373;51.824;5.564;2022-09-09T11:07:41;10.85;;;3.70;;
57989;SDS011;58373;51.824;5.564;2022-09-09T11:10:53;11.13;;;4.20;;
57989;SDS011;58373;51.824;5.564;2022-09-09T11:13:15;11.38;;;3.60;;
57989;SDS011;58373;51.824;5.564;2022-09-09T11:15:46;9.88;;;3.30;;
57989;SDS011;58373;51.824;5.564;2022-09-09T11:18:21;10.65;;;3.28;;
57989;SDS011;58373;51.824;5.564;2022-09-09T11:20:49;12.00;;;3.35;;
57989;SDS011;58373;51.824;5.564;2022-09-09T11:23:25;10.13;;;3.20;;
57989;SDS011;58373;51.824;5.564;2022-09-09T11:25:58;7.40;;;2.65;;
57989;SDS011;58373;51.824;5.564;2022-09-09T11:34:38;9.63;;;3.20;;
57989;SDS011;58373;51.824;5.564;2022-09-09T11:36:54;7.97;;;2.72;;
57989;SDS011;58373;51.824;5.564;2022-09-09T11:42:17;9.43;;;2.75;;
57989;SDS011;58373;51.824;5.564;2022-09-09T11:47:19;8.55;;;2.78;;
57989;SDS011;58373;51.824;5.564;2022-09-09T11:52:43;6.10;;;2.60;;
57989;SDS011;58373;51.824;5.564;2022-09-09T11:58:00;10.23;;;2.80;;
57989;SDS011;58373;51.824;5.564;2022-09-09T12:00:37;9.25;;;3.13;;
57989;SDS011;58373;51.824;5.564;2022-09-09T12:03:32;8.02;;;3.40;;
57989;SDS011;58373;51.824;5.564;2022-09-09T12:08:58;8.43;;;3.85;;
57989;SDS011;58373;51.824;5.564;2022-09-09T12:11:33;8.27;;;3.42;;
57989;SDS011;58373;51.824;5.564;2022-09-09T12:13:59;10.20;;;3.63;;
57989;SDS011;58373;51.824;5.564;2022-09-09T12:16:36;7.43;;;3.40;;
57989;SDS011;58373;51.824;5.564;2022-09-09T12:19:13;8.10;;;3.50;;
57989;SDS011;58373;51.824;5.564;2022-09-09T12:21:48;9.18;;;3.70;;
57989;SDS011;58373;51.824;5.564;2022-09-09T12:24:27;9.20;;;3.50;;
57989;SDS011;58373;51.824;5.564;2022-09-09T12:27:11;8.20;;;3.58;;
57989;SDS011;58373;51.824;5.564;2022-09-09T12:29:48;8.07;;;3.30;;
57989;SDS011;58373;51.824;5.564;2022-09-09T12:32:22;6.57;;;2.72;;
57989;SDS011;58373;51.824;5.564;2022-09-09T12:34:54;6.63;;;2.95;;
57989;SDS011;58373;51.824;5.564;2022-09-09T12:37:42;8.40;;;2.90;;
57989;SDS011;58373;51.824;5.564;2022-09-09T12:40:29;6.78;;;2.60;;
57989;SDS011;58373;51.824;5.564;2022-09-09T12:43:00;8.45;;;3.13;;
57989;SDS011;58373;51.824;5.564;2022-09-09T12:45:31;8.60;;;3.38;;
57989;SDS011;58373;51.824;5.564;2022-09-09T12:48:04;7.43;;;2.75;;
57989;SDS011;58373;51.824;5.564;2022-09-09T12:50:33;6.88;;;3.15;;
57989;SDS011;58373;51.824;5.564;2022-09-09T12:53:25;6.80;;;2.95;;
57989;SDS011;58373;51.824;5.564;2022-09-09T12:55:52;8.73;;;3.20;;
57989;SDS011;58373;51.824;5.564;2022-09-09T12:58:21;9.15;;;2.97;;
57989;SDS011;58373;51.824;5.564;2022-09-09T13:00:53;6.50;;;2.92;;
57989;SDS011;58373;51.824;5.564;2022-09-09T13:03:23;8.45;;;3.50;;
57989;SDS011;58373;51.824;5.564;2022-09-09T13:05:50;8.32;;;3.20;;
57989;SDS011;58373;51.824;5.564;2022-09-09T13:08:16;8.18;;;2.90;;
57989;SDS011;58373;51.824;5.564;2022-09-09T13:13:27;7.03;;;2.83;;
57989;SDS011;58373;51.824;5.564;2022-09-09T13:15:57;6.80;;;2.67;;
57989;SDS011;58373;51.824;5.564;2022-09-09T13:18:28;5.95;;;2.50;;
57989;SDS011;58373;51.824;5.564;2022-09-09T13:20:56;6.43;;;2.70;;
57989;SDS011;58373;51.824;5.564;2022-09-09T13:23:32;6.10;;;2.67;;
57989;SDS011;58373;51.824;5.564;2022-09-09T13:26:01;6.25;;;2.30;;
57989;SDS011;58373;51.824;5.564;2022-09-09T13:28:29;4.95;;;2.10;;
57989;SDS011;58373;51.824;5.564;2022-09-09T13:30:56;7.25;;;2.50;;
57989;SDS011;58373;51.824;5.564;2022-09-09T13:33:29;7.20;;;2.22;;
57989;SDS011;58373;51.824;5.564;2022-09-09T13:38:22;6.18;;;2.30;;
57989;SDS011;58373;51.824;5.564;2022-09-09T13:41:00;5.45;;;2.00;;
57989;SDS011;58373;51.824;5.564;2022-09-09T13:43:28;5.85;;;2.08;;
57989;SDS011;58373;51.824;5.564;2022-09-09T13:46:01;6.65;;;1.95;;
57989;SDS011;58373;51.824;5.564;2022-09-09T13:51:41;5.57;;;2.43;;
57989;SDS011;58373;51.824;5.564;2022-09-09T13:54:12;9.40;;;2.60;;
57989;SDS011;58373;51.824;5.564;2022-09-09T13:56:40;6.28;;;2.30;;
57989;SDS011;58373;51.824;5.564;2022-09-09T13:59:09;6.30;;;2.58;;
57989;SDS011;58373;51.824;5.564;2022-09-09T14:01:40;6.78;;;2.20;;
57989;SDS011;58373;51.824;5.564;2022-09-09T14:04:06;6.57;;;2.00;;
57989;SDS011;58373;51.824;5.564;2022-09-09T14:06:32;6.28;;;2.47;;
57989;SDS011;58373;51.824;5.564;2022-09-09T14:09:00;6.23;;;2.30;;
57989;SDS011;58373;51.824;5.564;2022-09-09T14:11:25;5.75;;;2.13;;
57989;SDS011;58373;51.824;5.564;2022-09-09T14:13:51;7.15;;;2.22;;
57989;SDS011;58373;51.824;5.564;2022-09-09T14:16:16;5.85;;;2.03;;
57989;SDS011;58373;51.824;5.564;2022-09-09T14:18:43;7.05;;;2.22;;
57989;SDS011;58373;51.824;5.564;2022-09-09T14:21:09;6.78;;;2.40;;
57989;SDS011;58373;51.824;5.564;2022-09-09T14:23:36;7.95;;;2.40;;
57989;SDS011;58373;51.824;5.564;2022-09-09T14:26:03;7.22;;;2.00;;
57989;SDS011;58373;51.824;5.564;2022-09-09T14:28:29;6.47;;;2.20;;
57989;SDS011;58373;51.824;5.564;2022-09-09T14:30:54;7.78;;;2.15;;
57989;SDS011;58373;51.824;5.564;2022-09-09T14:33:20;6.97;;;2.20;;
57989;SDS011;58373;51.824;5.564;2022-09-09T14:35:46;7.32;;;2.08;;
57989;SDS011;58373;51.824;5.564;2022-09-09T14:38:11;6.13;;;2.10;;
57989;SDS011;58373;51.824;5.564;2022-09-09T14:40:37;7.47;;;2.15;;
57989;SDS011;58373;51.824;5.564;2022-09-09T14:43:04;6.15;;;2.08;;
57989;SDS011;58373;51.824;5.564;2022-09-09T14:45:30;6.65;;;2.00;;
57989;SDS011;58373;51.824;5.564;2022-09-09T14:47:56;7.25;;;2.38;;
57989;SDS011;58373;51.824;5.564;2022-09-09T14:50:22;6.55;;;2.22;;
57989;SDS011;58373;51.824;5.564;2022-09-09T14:52:48;4.60;;;1.90;;
57989;SDS011;58373;51.824;5.564;2022-09-09T14:55:14;4.40;;;1.75;;
57989;SDS011;58373;51.824;5.564;2022-09-09T14:57:40;4.95;;;1.85;;
57989;SDS011;58373;51.824;5.564;2022-09-09T15:00:06;5.07;;;1.50;;
57989;SDS011;58373;51.824;5.564;2022-09-09T15:02:33;6.00;;;1.88;;
57989;SDS011;58373;51.824;5.564;2022-09-09T15:04:58;6.20;;;1.80;;
57989;SDS011;58373;51.824;5.564;2022-09-09T15:07:24;6.72;;;1.98;;
57989;SDS011;58373;51.824;5.564;2022-09-09T15:09:50;5.85;;;1.80;;
57989;SDS011;58373;51.824;5.564;2022-09-09T15:12:15;5.25;;;1.90;;
57989;SDS011;58373;51.824;5.564;2022-09-09T15:14:43;7.55;;;1.70;;
57989;SDS011;58373;51.824;5.564;2022-09-09T15:17:09;6.32;;;2.00;;
57989;SDS011;58373;51.824;5.564;2022-09-09T15:19:34;6.68;;;2.10;;
57989;SDS011;58373;51.824;5.564;2022-09-09T15:22:00;6.82;;;2.00;;
57989;SDS011;58373;51.824;5.564;2022-09-09T15:24:26;6.90;;;2.15;;
57989;SDS011;58373;51.824;5.564;2022-09-09T15:26:51;4.60;;;1.92;;
57989;SDS011;58373;51.824;5.564;2022-09-09T15:29:17;12.32;;;3.90;;
57989;SDS011;58373;51.824;5.564;2022-09-09T15:31:45;12.50;;;3.13;;
57989;SDS011;58373;51.824;5.564;2022-09-09T15:34:11;6.93;;;2.50;;
57989;SDS011;58373;51.824;5.564;2022-09-09T15:36:39;5.95;;;2.63;;
57989;SDS011;58373;51.824;5.564;2022-09-09T15:39:09;7.57;;;2.50;;
57989;SDS011;58373;51.824;5.564;2022-09-09T15:41:40;8.20;;;2.88;;
57989;SDS011;58373;51.824;5.564;2022-09-09T15:44:09;7.22;;;3.00;;
57989;SDS011;58373;51.824;5.564;2022-09-09T15:46:44;4.28;;;2.65;;
57989;SDS011;58373;51.824;5.564;2022-09-09T15:49:18;5.95;;;2.90;;
57989;SDS011;58373;51.824;5.564;2022-09-09T15:51:47;7.18;;;3.08;;
57989;SDS011;58373;51.824;5.564;2022-09-09T15:54:17;5.43;;;2.80;;
57989;SDS011;58373;51.824;5.564;2022-09-09T15:56:50;5.93;;;3.00;;
57989;SDS011;58373;51.824;5.564;2022-09-09T15:59:21;4.70;;;2.70;;
57989;SDS011;58373;51.824;5.564;2022-09-09T16:01:48;5.50;;;3.10;;
57989;SDS011;58373;51.824;5.564;2022-09-09T16:04:16;5.82;;;2.22;;
57989;SDS011;58373;51.824;5.564;2022-09-09T16:06:48;5.85;;;2.45;;
57989;SDS011;58373;51.824;5.564;2022-09-09T16:09:17;6.22;;;2.60;;
57989;SDS011;58373;51.824;5.564;2022-09-09T16:11:43;6.32;;;2.40;;
57989;SDS011;58373;51.824;5.564;2022-09-09T16:14:09;5.22;;;2.60;;
57989;SDS011;58373;51.824;5.564;2022-09-09T16:16:36;5.22;;;2.60;;
57989;SDS011;58373;51.824;5.564;2022-09-09T16:19:05;6.28;;;2.83;;
57989;SDS011;58373;51.824;5.564;2022-09-09T16:21:35;4.82;;;2.63;;
57989;SDS011;58373;51.824;5.564;2022-09-09T16:24:03;4.78;;;2.60;;
57989;SDS011;58373;51.824;5.564;2022-09-09T16:26:30;4.93;;;2.60;;
57989;SDS011;58373;51.824;5.564;2022-09-09T16:28:56;5.25;;;2.50;;
57989;SDS011;58373;51.824;5.564;2022-09-09T16:31:24;6.07;;;2.70;;
57989;SDS011;58373;51.824;5.564;2022-09-09T16:33:49;5.90;;;2.53;;
57989;SDS011;58373;51.824;5.564;2022-09-09T16:36:17;5.22;;;2.90;;
57989;SDS011;58373;51.824;5.564;2022-09-09T16:38:48;5.28;;;2.80;;
57989;SDS011;58373;51.824;5.564;2022-09-09T16:41:18;4.10;;;2.47;;
57989;SDS011;58373;51.824;5.564;2022-09-09T16:43:45;5.22;;;3.13;;
57989;SDS011;58373;51.824;5.564;2022-09-09T16:46:14;6.53;;;3.47;;
57989;SDS011;58373;51.824;5.564;2022-09-09T16:48:41;5.43;;;3.25;;
57989;SDS011;58373;51.824;5.564;2022-09-09T16:51:09;4.78;;;3.50;;
57989;SDS011;58373;51.824;5.564;2022-09-09T16:53:39;5.75;;;3.28;;
57989;SDS011;58373;51.824;5.564;2022-09-09T16:56:07;7.03;;;3.30;;
57989;SDS011;58373;51.824;5.564;2022-09-09T16:58:33;6.57;;;3.50;;
57989;SDS011;58373;51.824;5.564;2022-09-09T17:00:59;5.97;;;3.38;;
57989;SDS011;58373;51.824;5.564;2022-09-09T17:03:27;6.00;;;3.17;;
57989;SDS011;58373;51.824;5.564;2022-09-09T17:05:52;5.97;;;3.78;;
57989;SDS011;58373;51.824;5.564;2022-09-09T17:08:18;5.45;;;3.70;;
57989;SDS011;58373;51.824;5.564;2022-09-09T17:10:43;5.70;;;3.53;;